Strona główna
METAR-TAF:

METAR-TAF

Lotnisko :

Port lotniczy Londyn-Luton

Luton, Anglia

Szerokość geograficzna: 51-52N, Długość geograficzna: 000-22W, wysokość: 160 m

Aktualna obserwacja pogody

Raport powstał 32 minut temu, godzina 12:50 UTC
Wiatr 10 kt od zachodnio-północny zachód, zmienny między zachód i północno-północny zachód
Temperatura 6°C
Wilgotność 75%
Ciśnienie 1027 hPa
Widzialność 10 km lub więcej
Mało chmury na wysokości 2200 ft

METAR: EGGW 181250Z AUTO 30010KT 270V330 9999 FEW022 06/02 Q1027

czas: 13:22 (13:22 UTC)

Prognoza

Raport powstał 2 godziny i 29 minut temu, godzina 10:53 UTC
Prognoza ważna od 18 godzina 12 UTC do 19 godzina 12 UTC
Wiatr 10 kt od zachodnio-północny zachód
Widzialność 10 km lub więcej
Mało chmury na wysokości 2000 ft
Stopniowe zmiany
od 18 godzina 18 UTC do 18 godzina 21 UTC
Wiatr 5 kt od północ

TAF: EGGW 181053Z 1812/1912 29010KT 9999 FEW020 BECMG 1818/1821 35005KT

Obserwacja i prognoza pogody dla ponad 4000 lotnisk (raport METAR i TAF).

Dostępne stacje oznaczono żółtymi i czerwonymi punktami na mapie.

Najedź kursorem aby zobaczyć nazwę stacji.

Kliknij aby zobaczyć obserwacje i prognozy pogody.

Aby zmienić mapę: kliknij na zielony przycisk z czarnym krzyżykiem, aby powiększyć; na zielony przycisk z myślnikiem, aby pomniejszyć; na zielone strzałki, aby przejść do map sąsiednich.


METAR-TAF: